sensor_id;sensor_type;location;lat;lon;timestamp;P1;durP1;ratioP1;P2;durP2;ratioP2
52248;SDS011;38541;48.130;8.378;2023-06-22T00:02:25;5.50;;;3.75;;
52248;SDS011;38541;48.130;8.378;2023-06-22T00:04:52;6.20;;;4.07;;
52248;SDS011;38541;48.130;8.378;2023-06-22T00:07:19;4.47;;;3.50;;
52248;SDS011;38541;48.130;8.378;2023-06-22T00:09:45;3.95;;;3.25;;
52248;SDS011;38541;48.130;8.378;2023-06-22T00:12:12;4.18;;;3.15;;
52248;SDS011;38541;48.130;8.378;2023-06-22T00:14:38;5.53;;;3.90;;
52248;SDS011;38541;48.130;8.378;2023-06-22T00:17:05;5.47;;;3.30;;
52248;SDS011;38541;48.130;8.378;2023-06-22T00:19:31;4.60;;;4.13;;
52248;SDS011;38541;48.130;8.378;2023-06-22T00:21:58;5.03;;;3.83;;
52248;SDS011;38541;48.130;8.378;2023-06-22T00:24:26;7.03;;;4.38;;
52248;SDS011;38541;48.130;8.378;2023-06-22T00:26:52;5.20;;;3.95;;
52248;SDS011;38541;48.130;8.378;2023-06-22T00:29:19;7.30;;;4.78;;
52248;SDS011;38541;48.130;8.378;2023-06-22T00:31:45;6.65;;;3.75;;
52248;SDS011;38541;48.130;8.378;2023-06-22T00:34:13;4.72;;;3.70;;
52248;SDS011;38541;48.130;8.378;2023-06-22T00:36:40;5.68;;;3.85;;
52248;SDS011;38541;48.130;8.378;2023-06-22T00:39:07;5.20;;;4.10;;
52248;SDS011;38541;48.130;8.378;2023-06-22T00:41:35;4.18;;;3.72;;
52248;SDS011;38541;48.130;8.378;2023-06-22T00:44:03;4.55;;;3.40;;
52248;SDS011;38541;48.130;8.378;2023-06-22T00:46:30;5.10;;;3.65;;
52248;SDS011;38541;48.130;8.378;2023-06-22T00:48:58;6.40;;;4.15;;
52248;SDS011;38541;48.130;8.378;2023-06-22T00:51:27;6.13;;;4.65;;
52248;SDS011;38541;48.130;8.378;2023-06-22T00:53:54;6.35;;;4.07;;
52248;SDS011;38541;48.130;8.378;2023-06-22T00:56:22;5.07;;;3.95;;
52248;SDS011;38541;48.130;8.378;2023-06-22T00:58:51;4.18;;;3.50;;
52248;SDS011;38541;48.130;8.378;2023-06-22T01:01:19;4.20;;;3.80;;
52248;SDS011;38541;48.130;8.378;2023-06-22T01:03:50;6.00;;;4.13;;
52248;SDS011;38541;48.130;8.378;2023-06-22T01:06:20;4.30;;;3.90;;
52248;SDS011;38541;48.130;8.378;2023-06-22T01:11:43;5.90;;;4.07;;
52248;SDS011;38541;48.130;8.378;2023-06-22T01:14:14;4.13;;;3.72;;
52248;SDS011;38541;48.130;8.378;2023-06-22T01:16:45;4.97;;;4.25;;
52248;SDS011;38541;48.130;8.378;2023-06-22T01:22:17;4.40;;;3.70;;
52248;SDS011;38541;48.130;8.378;2023-06-22T01:27:56;4.18;;;3.78;;
52248;SDS011;38541;48.130;8.378;2023-06-22T01:30:31;6.82;;;3.63;;
52248;SDS011;38541;48.130;8.378;2023-06-22T01:33:02;5.90;;;3.50;;
52248;SDS011;38541;48.130;8.378;2023-06-22T01:35:31;3.60;;;3.17;;
52248;SDS011;38541;48.130;8.378;2023-06-22T01:37:59;4.53;;;3.50;;
52248;SDS011;38541;48.130;8.378;2023-06-22T01:40:26;5.07;;;3.63;;
52248;SDS011;38541;48.130;8.378;2023-06-22T01:42:54;9.13;;;4.00;;
52248;SDS011;38541;48.130;8.378;2023-06-22T01:45:21;5.47;;;4.05;;
52248;SDS011;38541;48.130;8.378;2023-06-22T01:47:48;5.15;;;4.00;;
52248;SDS011;38541;48.130;8.378;2023-06-22T01:50:15;4.57;;;3.70;;
52248;SDS011;38541;48.130;8.378;2023-06-22T01:52:42;6.47;;;3.88;;
52248;SDS011;38541;48.130;8.378;2023-06-22T01:55:09;8.25;;;4.68;;
52248;SDS011;38541;48.130;8.378;2023-06-22T01:57:35;5.57;;;4.40;;
52248;SDS011;38541;48.130;8.378;2023-06-22T02:00:03;7.85;;;4.90;;
52248;SDS011;38541;48.130;8.378;2023-06-22T02:02:49;4.72;;;3.85;;
52248;SDS011;38541;48.130;8.378;2023-06-22T02:05:20;5.68;;;3.90;;
52248;SDS011;38541;48.130;8.378;2023-06-22T02:07:52;6.38;;;5.20;;
52248;SDS011;38541;48.130;8.378;2023-06-22T02:10:30;4.82;;;3.72;;
52248;SDS011;38541;48.130;8.378;2023-06-22T02:12:58;7.00;;;4.60;;
52248;SDS011;38541;48.130;8.378;2023-06-22T02:15:25;9.63;;;4.45;;
52248;SDS011;38541;48.130;8.378;2023-06-22T02:17:54;6.05;;;4.30;;
52248;SDS011;38541;48.130;8.378;2023-06-22T02:20:20;7.28;;;4.30;;
52248;SDS011;38541;48.130;8.378;2023-06-22T02:22:47;5.65;;;4.30;;
52248;SDS011;38541;48.130;8.378;2023-06-22T02:25:14;5.45;;;3.90;;
52248;SDS011;38541;48.130;8.378;2023-06-22T02:27:40;9.88;;;4.82;;
52248;SDS011;38541;48.130;8.378;2023-06-22T02:30:08;5.32;;;4.15;;
52248;SDS011;38541;48.130;8.378;2023-06-22T02:32:38;8.82;;;4.07;;
52248;SDS011;38541;48.130;8.378;2023-06-22T02:35:08;7.15;;;4.55;;
52248;SDS011;38541;48.130;8.378;2023-06-22T02:37:38;4.68;;;4.20;;
52248;SDS011;38541;48.130;8.378;2023-06-22T02:40:07;6.38;;;4.10;;
52248;SDS011;38541;48.130;8.378;2023-06-22T02:42:35;5.70;;;4.57;;
52248;SDS011;38541;48.130;8.378;2023-06-22T02:45:02;6.55;;;4.55;;
52248;SDS011;38541;48.130;8.378;2023-06-22T02:47:29;6.45;;;4.70;;
52248;SDS011;38541;48.130;8.378;2023-06-22T02:49:57;6.13;;;4.50;;
52248;SDS011;38541;48.130;8.378;2023-06-22T02:52:24;4.78;;;4.00;;
52248;SDS011;38541;48.130;8.378;2023-06-22T02:54:51;7.00;;;4.63;;
52248;SDS011;38541;48.130;8.378;2023-06-22T02:57:18;5.18;;;4.32;;
52248;SDS011;38541;48.130;8.378;2023-06-22T02:59:45;5.80;;;4.13;;
52248;SDS011;38541;48.130;8.378;2023-06-22T03:02:12;6.75;;;4.72;;
52248;SDS011;38541;48.130;8.378;2023-06-22T03:04:39;5.55;;;4.53;;
52248;SDS011;38541;48.130;8.378;2023-06-22T03:07:05;5.45;;;4.22;;
52248;SDS011;38541;48.130;8.378;2023-06-22T03:09:32;6.53;;;5.00;;
52248;SDS011;38541;48.130;8.378;2023-06-22T03:11:59;5.75;;;4.03;;
52248;SDS011;38541;48.130;8.378;2023-06-22T03:14:35;6.03;;;4.43;;
52248;SDS011;38541;48.130;8.378;2023-06-22T03:17:04;5.22;;;4.68;;
52248;SDS011;38541;48.130;8.378;2023-06-22T03:19:31;4.80;;;4.30;;
52248;SDS011;38541;48.130;8.378;2023-06-22T03:21:59;5.50;;;4.63;;
52248;SDS011;38541;48.130;8.378;2023-06-22T03:24:26;4.68;;;3.70;;
52248;SDS011;38541;48.130;8.378;2023-06-22T03:26:55;6.32;;;4.72;;
52248;SDS011;38541;48.130;8.378;2023-06-22T03:29:23;5.60;;;4.35;;
52248;SDS011;38541;48.130;8.378;2023-06-22T03:31:50;9.23;;;4.10;;
52248;SDS011;38541;48.130;8.378;2023-06-22T03:34:16;5.70;;;3.90;;
52248;SDS011;38541;48.130;8.378;2023-06-22T03:36:43;3.97;;;3.58;;
52248;SDS011;38541;48.130;8.378;2023-06-22T03:39:11;13.43;;;8.00;;
52248;SDS011;38541;48.130;8.378;2023-06-22T03:41:39;10.30;;;6.88;;
52248;SDS011;38541;48.130;8.378;2023-06-22T03:44:06;10.73;;;7.68;;
52248;SDS011;38541;48.130;8.378;2023-06-22T03:46:32;24.73;;;13.57;;
52248;SDS011;38541;48.130;8.378;2023-06-22T03:48:59;17.67;;;9.77;;
52248;SDS011;38541;48.130;8.378;2023-06-22T03:51:28;10.13;;;6.70;;
52248;SDS011;38541;48.130;8.378;2023-06-22T03:53:54;9.95;;;6.38;;
52248;SDS011;38541;48.130;8.378;2023-06-22T03:56:21;8.80;;;5.20;;
52248;SDS011;38541;48.130;8.378;2023-06-22T03:58:47;6.90;;;4.97;;
52248;SDS011;38541;48.130;8.378;2023-06-22T04:01:14;11.75;;;6.35;;
52248;SDS011;38541;48.130;8.378;2023-06-22T04:03:43;9.63;;;5.53;;
52248;SDS011;38541;48.130;8.378;2023-06-22T04:06:09;7.93;;;4.93;;
52248;SDS011;38541;48.130;8.378;2023-06-22T04:08:36;8.25;;;5.50;;
52248;SDS011;38541;48.130;8.378;2023-06-22T04:11:02;9.18;;;6.13;;
52248;SDS011;38541;48.130;8.378;2023-06-22T04:13:29;7.97;;;5.00;;
52248;SDS011;38541;48.130;8.378;2023-06-22T04:15:55;13.15;;;5.82;;
52248;SDS011;38541;48.130;8.378;2023-06-22T04:18:22;7.15;;;5.05;;
52248;SDS011;38541;48.130;8.378;2023-06-22T04:20:49;10.45;;;5.55;;
52248;SDS011;38541;48.130;8.378;2023-06-22T04:23:15;9.40;;;5.72;;
52248;SDS011;38541;48.130;8.378;2023-06-22T04:25:41;5.82;;;4.70;;
52248;SDS011;38541;48.130;8.378;2023-06-22T04:28:08;10.25;;;5.15;;
52248;SDS011;38541;48.130;8.378;2023-06-22T04:30:38;6.82;;;4.57;;
52248;SDS011;38541;48.130;8.378;2023-06-22T04:33:13;7.03;;;4.35;;
52248;SDS011;38541;48.130;8.378;2023-06-22T04:35:40;11.77;;;5.45;;
52248;SDS011;38541;48.130;8.378;2023-06-22T04:38:08;8.93;;;5.90;;
52248;SDS011;38541;48.130;8.378;2023-06-22T04:40:35;10.38;;;5.43;;
52248;SDS011;38541;48.130;8.378;2023-06-22T04:43:01;6.97;;;5.60;;
52248;SDS011;38541;48.130;8.378;2023-06-22T04:45:28;7.32;;;5.18;;
52248;SDS011;38541;48.130;8.378;2023-06-22T04:47:55;9.05;;;5.32;;
52248;SDS011;38541;48.130;8.378;2023-06-22T04:50:22;8.10;;;4.72;;
52248;SDS011;38541;48.130;8.378;2023-06-22T04:52:50;5.90;;;4.40;;
52248;SDS011;38541;48.130;8.378;2023-06-22T04:55:17;7.57;;;5.55;;
52248;SDS011;38541;48.130;8.378;2023-06-22T04:57:47;7.32;;;4.80;;
52248;SDS011;38541;48.130;8.378;2023-06-22T05:00:20;6.63;;;5.55;;
52248;SDS011;38541;48.130;8.378;2023-06-22T05:02:49;6.30;;;5.03;;
52248;SDS011;38541;48.130;8.378;2023-06-22T05:05:16;6.15;;;5.28;;
52248;SDS011;38541;48.130;8.378;2023-06-22T05:07:45;6.07;;;5.47;;
52248;SDS011;38541;48.130;8.378;2023-06-22T05:10:14;6.25;;;5.65;;
52248;SDS011;38541;48.130;8.378;2023-06-22T05:12:41;9.57;;;5.43;;
52248;SDS011;38541;48.130;8.378;2023-06-22T05:15:08;6.65;;;4.72;;
52248;SDS011;38541;48.130;8.378;2023-06-22T05:17:35;8.73;;;6.00;;
52248;SDS011;38541;48.130;8.378;2023-06-22T05:20:02;8.57;;;5.82;;
52248;SDS011;38541;48.130;8.378;2023-06-22T05:22:32;8.30;;;5.70;;
52248;SDS011;38541;48.130;8.378;2023-06-22T05:24:59;7.53;;;5.53;;
52248;SDS011;38541;48.130;8.378;2023-06-22T05:27:25;9.65;;;5.70;;
52248;SDS011;38541;48.130;8.378;2023-06-22T05:29:52;10.15;;;5.35;;
52248;SDS011;38541;48.130;8.378;2023-06-22T05:32:18;7.80;;;6.05;;
52248;SDS011;38541;48.130;8.378;2023-06-22T05:34:46;6.35;;;5.32;;
52248;SDS011;38541;48.130;8.378;2023-06-22T05:37:12;6.65;;;5.30;;
52248;SDS011;38541;48.130;8.378;2023-06-22T05:39:39;10.02;;;6.72;;
52248;SDS011;38541;48.130;8.378;2023-06-22T05:42:05;7.25;;;5.80;;
52248;SDS011;38541;48.130;8.378;2023-06-22T05:44:36;7.32;;;5.68;;
52248;SDS011;38541;48.130;8.378;2023-06-22T05:47:03;7.15;;;5.30;;
52248;SDS011;38541;48.130;8.378;2023-06-22T05:49:30;10.32;;;5.28;;
52248;SDS011;38541;48.130;8.378;2023-06-22T05:51:59;8.15;;;6.35;;
52248;SDS011;38541;48.130;8.378;2023-06-22T05:54:29;6.50;;;5.30;;
52248;SDS011;38541;48.130;8.378;2023-06-22T05:56:56;7.03;;;5.28;;
52248;SDS011;38541;48.130;8.378;2023-06-22T05:59:23;7.30;;;5.60;;
52248;SDS011;38541;48.130;8.378;2023-06-22T06:01:49;6.47;;;5.82;;
52248;SDS011;38541;48.130;8.378;2023-06-22T06:04:19;7.57;;;5.72;;
52248;SDS011;38541;48.130;8.378;2023-06-22T06:06:46;6.45;;;5.80;;
52248;SDS011;38541;48.130;8.378;2023-06-22T06:09:16;6.85;;;5.50;;
52248;SDS011;38541;48.130;8.378;2023-06-22T06:11:42;6.50;;;5.32;;
52248;SDS011;38541;48.130;8.378;2023-06-22T06:14:09;6.68;;;5.30;;
52248;SDS011;38541;48.130;8.378;2023-06-22T06:16:35;6.63;;;5.25;;
52248;SDS011;38541;48.130;8.378;2023-06-22T06:19:02;7.40;;;5.07;;
52248;SDS011;38541;48.130;8.378;2023-06-22T06:21:28;5.10;;;4.20;;
52248;SDS011;38541;48.130;8.378;2023-06-22T06:23:56;7.95;;;4.95;;
52248;SDS011;38541;48.130;8.378;2023-06-22T06:26:23;7.20;;;5.20;;
52248;SDS011;38541;48.130;8.378;2023-06-22T06:28:54;5.25;;;4.75;;
52248;SDS011;38541;48.130;8.378;2023-06-22T06:31:21;6.38;;;4.40;;
52248;SDS011;38541;48.130;8.378;2023-06-22T06:33:49;5.72;;;4.55;;
52248;SDS011;38541;48.130;8.378;2023-06-22T06:36:16;5.80;;;4.28;;
52248;SDS011;38541;48.130;8.378;2023-06-22T06:38:43;6.53;;;3.92;;
52248;SDS011;38541;48.130;8.378;2023-06-22T06:41:09;8.73;;;5.03;;
52248;SDS011;38541;48.130;8.378;2023-06-22T06:43:36;6.88;;;4.85;;
52248;SDS011;38541;48.130;8.378;2023-06-22T06:46:02;8.75;;;4.85;;
52248;SDS011;38541;48.130;8.378;2023-06-22T06:48:29;10.80;;;4.28;;
52248;SDS011;38541;48.130;8.378;2023-06-22T06:50:56;9.38;;;4.88;;
52248;SDS011;38541;48.130;8.378;2023-06-22T06:53:22;4.90;;;4.15;;
52248;SDS011;38541;48.130;8.378;2023-06-22T06:55:49;5.68;;;4.20;;
52248;SDS011;38541;48.130;8.378;2023-06-22T06:58:15;7.95;;;4.18;;
52248;SDS011;38541;48.130;8.378;2023-06-22T07:00:42;7.53;;;4.35;;
52248;SDS011;38541;48.130;8.378;2023-06-22T07:03:10;7.07;;;4.80;;
52248;SDS011;38541;48.130;8.378;2023-06-22T07:05:36;7.55;;;4.20;;
52248;SDS011;38541;48.130;8.378;2023-06-22T07:08:03;5.72;;;4.18;;
52248;SDS011;38541;48.130;8.378;2023-06-22T07:10:29;7.55;;;4.32;;
52248;SDS011;38541;48.130;8.378;2023-06-22T07:12:56;7.00;;;4.35;;
52248;SDS011;38541;48.130;8.378;2023-06-22T07:15:23;7.13;;;4.10;;
52248;SDS011;38541;48.130;8.378;2023-06-22T07:17:50;8.43;;;4.75;;
52248;SDS011;38541;48.130;8.378;2023-06-22T07:20:17;5.55;;;4.05;;
52248;SDS011;38541;48.130;8.378;2023-06-22T07:22:45;6.13;;;4.43;;
52248;SDS011;38541;48.130;8.378;2023-06-22T07:25:12;7.07;;;4.45;;
52248;SDS011;38541;48.130;8.378;2023-06-22T07:30:29;6.05;;;4.38;;
52248;SDS011;38541;48.130;8.378;2023-06-22T07:32:56;5.35;;;3.80;;
52248;SDS011;38541;48.130;8.378;2023-06-22T07:35:24;6.97;;;4.10;;
52248;SDS011;38541;48.130;8.378;2023-06-22T07:37:51;4.97;;;4.05;;
52248;SDS011;38541;48.130;8.378;2023-06-22T07:40:17;8.77;;;4.28;;
52248;SDS011;38541;48.130;8.378;2023-06-22T07:42:44;6.47;;;4.53;;
52248;SDS011;38541;48.130;8.378;2023-06-22T07:45:11;6.88;;;4.43;;
52248;SDS011;38541;48.130;8.378;2023-06-22T07:47:37;5.97;;;3.92;;
52248;SDS011;38541;48.130;8.378;2023-06-22T07:50:04;5.43;;;3.72;;
52248;SDS011;38541;48.130;8.378;2023-06-22T07:52:31;6.88;;;4.25;;
52248;SDS011;38541;48.130;8.378;2023-06-22T07:54:58;4.97;;;4.13;;
52248;SDS011;38541;48.130;8.378;2023-06-22T07:57:25;7.18;;;3.92;;
52248;SDS011;38541;48.130;8.378;2023-06-22T08:00:01;4.85;;;3.83;;
52248;SDS011;38541;48.130;8.378;2023-06-22T08:02:37;4.85;;;3.80;;
52248;SDS011;38541;48.130;8.378;2023-06-22T08:05:04;5.10;;;3.55;;
52248;SDS011;38541;48.130;8.378;2023-06-22T08:07:47;4.68;;;3.63;;
52248;SDS011;38541;48.130;8.378;2023-06-22T08:10:14;5.18;;;3.80;;
52248;SDS011;38541;48.130;8.378;2023-06-22T08:12:42;7.70;;;4.53;;
52248;SDS011;38541;48.130;8.378;2023-06-22T08:15:08;6.60;;;4.25;;
52248;SDS011;38541;48.130;8.378;2023-06-22T08:17:37;4.35;;;3.95;;
52248;SDS011;38541;48.130;8.378;2023-06-22T08:20:04;5.32;;;3.90;;
52248;SDS011;38541;48.130;8.378;2023-06-22T08:22:39;4.93;;;3.83;;
52248;SDS011;38541;48.130;8.378;2023-06-22T08:25:06;5.03;;;3.92;;
52248;SDS011;38541;48.130;8.378;2023-06-22T08:27:33;4.70;;;3.38;;
52248;SDS011;38541;48.130;8.378;2023-06-22T08:30:00;6.93;;;3.85;;
52248;SDS011;38541;48.130;8.378;2023-06-22T08:32:27;6.45;;;4.10;;
52248;SDS011;38541;48.130;8.378;2023-06-22T08:34:55;5.55;;;3.80;;
52248;SDS011;38541;48.130;8.378;2023-06-22T08:37:23;5.30;;;3.75;;
52248;SDS011;38541;48.130;8.378;2023-06-22T08:39:58;5.82;;;3.42;;
52248;SDS011;38541;48.130;8.378;2023-06-22T08:42:25;12.27;;;4.07;;
52248;SDS011;38541;48.130;8.378;2023-06-22T08:44:52;3.97;;;3.35;;
52248;SDS011;38541;48.130;8.378;2023-06-22T08:47:18;6.18;;;3.72;;
52248;SDS011;38541;48.130;8.378;2023-06-22T08:49:45;5.53;;;3.17;;
52248;SDS011;38541;48.130;8.378;2023-06-22T08:52:13;9.35;;;5.70;;
52248;SDS011;38541;48.130;8.378;2023-06-22T08:54:39;3.90;;;3.45;;
52248;SDS011;38541;48.130;8.378;2023-06-22T08:57:06;5.28;;;3.88;;
52248;SDS011;38541;48.130;8.378;2023-06-22T08:59:33;7.88;;;4.30;;
52248;SDS011;38541;48.130;8.378;2023-06-22T09:01:59;6.28;;;3.55;;
52248;SDS011;38541;48.130;8.378;2023-06-22T09:04:26;6.25;;;3.30;;
52248;SDS011;38541;48.130;8.378;2023-06-22T09:06:52;5.43;;;3.88;;
52248;SDS011;38541;48.130;8.378;2023-06-22T09:09:20;9.70;;;4.25;;
52248;SDS011;38541;48.130;8.378;2023-06-22T09:11:47;5.95;;;3.92;;
52248;SDS011;38541;48.130;8.378;2023-06-22T09:14:14;7.20;;;4.85;;
52248;SDS011;38541;48.130;8.378;2023-06-22T09:16:40;4.88;;;3.65;;
52248;SDS011;38541;48.130;8.378;2023-06-22T09:19:07;6.10;;;3.30;;
52248;SDS011;38541;48.130;8.378;2023-06-22T09:21:33;7.30;;;3.53;;
52248;SDS011;38541;48.130;8.378;2023-06-22T09:24:00;5.32;;;3.33;;
52248;SDS011;38541;48.130;8.378;2023-06-22T09:26:26;4.65;;;3.25;;
52248;SDS011;38541;48.130;8.378;2023-06-22T09:28:53;3.95;;;3.55;;
52248;SDS011;38541;48.130;8.378;2023-06-22T09:31:19;4.60;;;3.38;;
52248;SDS011;38541;48.130;8.378;2023-06-22T09:33:52;4.15;;;3.50;;
52248;SDS011;38541;48.130;8.378;2023-06-22T09:36:20;6.05;;;3.42;;
52248;SDS011;38541;48.130;8.378;2023-06-22T09:38:47;5.68;;;3.90;;
52248;SDS011;38541;48.130;8.378;2023-06-22T09:41:14;3.95;;;3.53;;
52248;SDS011;38541;48.130;8.378;2023-06-22T09:43:42;5.15;;;4.22;;
52248;SDS011;38541;48.130;8.378;2023-06-22T09:46:08;5.18;;;3.75;;
52248;SDS011;38541;48.130;8.378;2023-06-22T09:48:35;4.75;;;3.42;;
52248;SDS011;38541;48.130;8.378;2023-06-22T09:51:05;3.60;;;3.20;;
52248;SDS011;38541;48.130;8.378;2023-06-22T09:53:32;6.63;;;3.63;;
52248;SDS011;38541;48.130;8.378;2023-06-22T09:56:01;5.13;;;3.53;;
52248;SDS011;38541;48.130;8.378;2023-06-22T09:58:28;5.68;;;4.15;;
52248;SDS011;38541;48.130;8.378;2023-06-22T10:00:54;6.15;;;3.58;;
52248;SDS011;38541;48.130;8.378;2023-06-22T10:03:21;6.72;;;3.67;;
52248;SDS011;38541;48.130;8.378;2023-06-22T10:05:47;5.60;;;3.58;;
52248;SDS011;38541;48.130;8.378;2023-06-22T10:08:14;5.70;;;3.47;;
52248;SDS011;38541;48.130;8.378;2023-06-22T10:10:41;7.05;;;4.15;;
52248;SDS011;38541;48.130;8.378;2023-06-22T10:13:08;7.35;;;4.35;;
52248;SDS011;38541;48.130;8.378;2023-06-22T10:15:36;4.97;;;3.85;;
52248;SDS011;38541;48.130;8.378;2023-06-22T10:18:03;4.05;;;3.45;;
52248;SDS011;38541;48.130;8.378;2023-06-22T10:20:30;5.55;;;3.88;;
52248;SDS011;38541;48.130;8.378;2023-06-22T10:22:57;6.13;;;3.63;;
52248;SDS011;38541;48.130;8.378;2023-06-22T10:25:26;5.65;;;3.40;;
52248;SDS011;38541;48.130;8.378;2023-06-22T10:27:53;7.22;;;4.28;;
52248;SDS011;38541;48.130;8.378;2023-06-22T10:30:20;4.50;;;3.78;;
52248;SDS011;38541;48.130;8.378;2023-06-22T10:32:47;8.63;;;3.90;;
52248;SDS011;38541;48.130;8.378;2023-06-22T10:35:14;5.57;;;3.80;;
52248;SDS011;38541;48.130;8.378;2023-06-22T10:37:43;4.05;;;3.65;;
52248;SDS011;38541;48.130;8.378;2023-06-22T10:40:11;5.65;;;4.03;;
52248;SDS011;38541;48.130;8.378;2023-06-22T10:42:42;5.80;;;3.47;;
52248;SDS011;38541;48.130;8.378;2023-06-22T10:45:08;5.40;;;3.78;;
52248;SDS011;38541;48.130;8.378;2023-06-22T10:47:35;3.63;;;3.08;;
52248;SDS011;38541;48.130;8.378;2023-06-22T10:50:02;5.13;;;3.63;;
52248;SDS011;38541;48.130;8.378;2023-06-22T10:52:30;3.80;;;3.40;;
52248;SDS011;38541;48.130;8.378;2023-06-22T10:54:57;5.28;;;3.47;;
52248;SDS011;38541;48.130;8.378;2023-06-22T10:57:24;5.03;;;3.80;;
52248;SDS011;38541;48.130;8.378;2023-06-22T10:59:50;7.28;;;3.85;;
52248;SDS011;38541;48.130;8.378;2023-06-22T11:02:17;4.75;;;3.55;;
52248;SDS011;38541;48.130;8.378;2023-06-22T11:04:43;6.20;;;3.67;;
52248;SDS011;38541;48.130;8.378;2023-06-22T11:07:10;4.53;;;3.17;;
52248;SDS011;38541;48.130;8.378;2023-06-22T11:09:37;3.63;;;3.33;;
52248;SDS011;38541;48.130;8.378;2023-06-22T11:12:05;5.15;;;3.83;;
52248;SDS011;38541;48.130;8.378;2023-06-22T11:14:32;6.45;;;3.75;;
52248;SDS011;38541;48.130;8.378;2023-06-22T11:16:59;4.82;;;3.42;;
52248;SDS011;38541;48.130;8.378;2023-06-22T11:19:26;7.05;;;3.40;;
52248;SDS011;38541;48.130;8.378;2023-06-22T11:21:53;5.57;;;4.00;;
52248;SDS011;38541;48.130;8.378;2023-06-22T11:24:19;7.85;;;3.70;;
52248;SDS011;38541;48.130;8.378;2023-06-22T11:26:46;5.65;;;3.80;;
52248;SDS011;38541;48.130;8.378;2023-06-22T11:29:12;5.13;;;3.50;;
52248;SDS011;38541;48.130;8.378;2023-06-22T11:31:53;4.70;;;3.85;;
52248;SDS011;38541;48.130;8.378;2023-06-22T11:34:19;4.82;;;3.72;;
52248;SDS011;38541;48.130;8.378;2023-06-22T11:36:46;4.80;;;3.92;;
52248;SDS011;38541;48.130;8.378;2023-06-22T11:39:14;6.05;;;4.28;;
52248;SDS011;38541;48.130;8.378;2023-06-22T11:41:41;4.70;;;3.33;;
52248;SDS011;38541;48.130;8.378;2023-06-22T11:44:08;5.05;;;3.08;;
52248;SDS011;38541;48.130;8.378;2023-06-22T11:46:35;5.20;;;3.70;;
52248;SDS011;38541;48.130;8.378;2023-06-22T11:49:01;7.55;;;3.45;;
52248;SDS011;38541;48.130;8.378;2023-06-22T11:51:28;5.97;;;4.00;;
52248;SDS011;38541;48.130;8.378;2023-06-22T11:53:57;4.45;;;3.03;;
52248;SDS011;38541;48.130;8.378;2023-06-22T11:56:25;5.63;;;3.40;;
52248;SDS011;38541;48.130;8.378;2023-06-22T11:58:51;6.40;;;3.67;;
52248;SDS011;38541;48.130;8.378;2023-06-22T12:01:18;5.57;;;3.83;;
52248;SDS011;38541;48.130;8.378;2023-06-22T12:03:45;4.85;;;3.55;;
52248;SDS011;38541;48.130;8.378;2023-06-22T12:06:12;7.43;;;4.32;;
52248;SDS011;38541;48.130;8.378;2023-06-22T12:08:38;6.28;;;3.25;;
52248;SDS011;38541;48.130;8.378;2023-06-22T12:11:06;4.95;;;3.95;;
52248;SDS011;38541;48.130;8.378;2023-06-22T12:13:33;4.90;;;3.50;;
52248;SDS011;38541;48.130;8.378;2023-06-22T12:15:59;4.38;;;3.30;;
52248;SDS011;38541;48.130;8.378;2023-06-22T12:18:26;4.10;;;3.38;;
52248;SDS011;38541;48.130;8.378;2023-06-22T12:20:52;5.05;;;3.28;;
52248;SDS011;38541;48.130;8.378;2023-06-22T12:23:19;3.72;;;2.25;;
52248;SDS011;38541;48.130;8.378;2023-06-22T12:25:46;8.88;;;2.28;;
52248;SDS011;38541;48.130;8.378;2023-06-22T12:28:12;4.70;;;1.92;;
52248;SDS011;38541;48.130;8.378;2023-06-22T12:30:39;4.80;;;1.70;;
52248;SDS011;38541;48.130;8.378;2023-06-22T12:33:05;5.25;;;2.42;;
52248;SDS011;38541;48.130;8.378;2023-06-22T12:35:32;3.47;;;1.30;;
52248;SDS011;38541;48.130;8.378;2023-06-22T12:37:58;3.40;;;1.75;;
52248;SDS011;38541;48.130;8.378;2023-06-22T12:40:25;6.85;;;2.28;;
52248;SDS011;38541;48.130;8.378;2023-06-22T12:42:51;3.80;;;1.98;;
52248;SDS011;38541;48.130;8.378;2023-06-22T12:45:18;5.32;;;1.90;;
52248;SDS011;38541;48.130;8.378;2023-06-22T12:47:46;5.00;;;1.95;;
52248;SDS011;38541;48.130;8.378;2023-06-22T12:50:13;4.55;;;2.05;;
52248;SDS011;38541;48.130;8.378;2023-06-22T12:52:39;5.53;;;1.80;;
52248;SDS011;38541;48.130;8.378;2023-06-22T12:55:07;5.60;;;2.00;;
52248;SDS011;38541;48.130;8.378;2023-06-22T12:57:34;2.85;;;1.63;;
52248;SDS011;38541;48.130;8.378;2023-06-22T13:00:00;5.38;;;1.80;;
52248;SDS011;38541;48.130;8.378;2023-06-22T13:02:27;5.38;;;1.85;;
52248;SDS011;38541;48.130;8.378;2023-06-22T13:04:54;4.15;;;2.00;;
52248;SDS011;38541;48.130;8.378;2023-06-22T13:07:20;3.53;;;2.22;;
52248;SDS011;38541;48.130;8.378;2023-06-22T13:09:49;5.95;;;2.42;;
52248;SDS011;38541;48.130;8.378;2023-06-22T13:12:20;3.28;;;1.95;;
52248;SDS011;38541;48.130;8.378;2023-06-22T13:14:47;5.70;;;2.40;;
52248;SDS011;38541;48.130;8.378;2023-06-22T13:17:13;6.25;;;1.73;;
52248;SDS011;38541;48.130;8.378;2023-06-22T13:19:40;3.58;;;2.10;;
52248;SDS011;38541;48.130;8.378;2023-06-22T13:24:57;5.93;;;2.58;;
52248;SDS011;38541;48.130;8.378;2023-06-22T13:27:25;7.32;;;2.25;;
52248;SDS011;38541;48.130;8.378;2023-06-22T13:29:52;6.03;;;2.00;;
52248;SDS011;38541;48.130;8.378;2023-06-22T13:32:18;6.05;;;1.88;;
52248;SDS011;38541;48.130;8.378;2023-06-22T13:34:45;6.28;;;2.35;;
52248;SDS011;38541;48.130;8.378;2023-06-22T13:37:12;6.32;;;2.45;;
52248;SDS011;38541;48.130;8.378;2023-06-22T13:39:38;5.43;;;2.10;;
52248;SDS011;38541;48.130;8.378;2023-06-22T13:42:05;4.65;;;2.42;;
52248;SDS011;38541;48.130;8.378;2023-06-22T13:44:32;5.97;;;2.40;;
52248;SDS011;38541;48.130;8.378;2023-06-22T13:46:59;6.70;;;2.83;;
52248;SDS011;38541;48.130;8.378;2023-06-22T13:49:26;3.25;;;2.67;;
52248;SDS011;38541;48.130;8.378;2023-06-22T13:51:52;4.10;;;2.35;;
52248;SDS011;38541;48.130;8.378;2023-06-22T13:54:19;4.47;;;2.50;;
52248;SDS011;38541;48.130;8.378;2023-06-22T13:56:48;7.15;;;2.85;;
52248;SDS011;38541;48.130;8.378;2023-06-22T13:59:15;7.38;;;3.78;;
52248;SDS011;38541;48.130;8.378;2023-06-22T14:01:41;5.85;;;3.63;;
52248;SDS011;38541;48.130;8.378;2023-06-22T14:04:09;5.35;;;3.22;;
52248;SDS011;38541;48.130;8.378;2023-06-22T14:06:37;6.18;;;2.97;;
52248;SDS011;38541;48.130;8.378;2023-06-22T14:09:04;4.65;;;2.60;;
52248;SDS011;38541;48.130;8.378;2023-06-22T14:11:30;5.03;;;3.03;;
52248;SDS011;38541;48.130;8.378;2023-06-22T14:13:57;7.32;;;2.88;;
52248;SDS011;38541;48.130;8.378;2023-06-22T14:16:23;6.50;;;3.47;;
52248;SDS011;38541;48.130;8.378;2023-06-22T14:18:50;10.38;;;4.05;;
52248;SDS011;38541;48.130;8.378;2023-06-22T14:21:18;5.82;;;2.70;;
52248;SDS011;38541;48.130;8.378;2023-06-22T14:23:45;4.72;;;2.58;;
52248;SDS011;38541;48.130;8.378;2023-06-22T14:26:15;4.85;;;2.65;;
52248;SDS011;38541;48.130;8.378;2023-06-22T14:28:45;5.20;;;3.30;;
52248;SDS011;38541;48.130;8.378;2023-06-22T14:31:14;7.80;;;2.67;;
52248;SDS011;38541;48.130;8.378;2023-06-22T14:33:43;5.55;;;2.75;;
52248;SDS011;38541;48.130;8.378;2023-06-22T14:36:12;5.97;;;2.88;;
52248;SDS011;38541;48.130;8.378;2023-06-22T14:38:39;6.45;;;2.63;;
52248;SDS011;38541;48.130;8.378;2023-06-22T14:41:06;5.65;;;2.65;;
52248;SDS011;38541;48.130;8.378;2023-06-22T14:43:43;6.03;;;3.20;;
52248;SDS011;38541;48.130;8.378;2023-06-22T14:46:11;4.30;;;2.85;;
52248;SDS011;38541;48.130;8.378;2023-06-22T14:48:38;7.95;;;3.35;;
52248;SDS011;38541;48.130;8.378;2023-06-22T14:51:04;4.60;;;2.70;;
52248;SDS011;38541;48.130;8.378;2023-06-22T14:53:31;6.60;;;2.45;;
52248;SDS011;38541;48.130;8.378;2023-06-22T14:55:57;5.47;;;2.75;;
52248;SDS011;38541;48.130;8.378;2023-06-22T14:58:26;4.80;;;2.45;;
52248;SDS011;38541;48.130;8.378;2023-06-22T15:00:52;7.55;;;3.95;;
52248;SDS011;38541;48.130;8.378;2023-06-22T15:03:19;5.75;;;2.80;;
52248;SDS011;38541;48.130;8.378;2023-06-22T15:05:51;6.40;;;2.58;;